createdAt,value
2022-11-13T00:02:41.850Z,18.23
2022-11-13T00:05:27.587Z,18.60
2022-11-13T00:08:13.251Z,20.10
2022-11-13T00:11:07.376Z,21.17
2022-11-13T00:13:53.311Z,20.23
2022-11-13T00:16:39.181Z,16.98
2022-11-13T00:19:25.389Z,20.42
2022-11-13T00:22:15.419Z,19.85
2022-11-13T00:25:01.559Z,21.63
2022-11-13T00:27:47.392Z,19.48
2022-11-13T00:30:32.979Z,20.90
2022-11-13T00:33:38.279Z,28.02
2022-11-13T00:36:26.686Z,20.38
2022-11-13T00:39:12.713Z,20.23
2022-11-13T00:41:58.853Z,24.27
2022-11-13T00:44:44.744Z,21.88
2022-11-13T00:47:30.540Z,20.60
2022-11-13T00:50:16.977Z,19.48
2022-11-13T00:53:02.700Z,20.77
2022-11-13T00:55:48.911Z,22.38
2022-11-13T00:58:34.720Z,20.98
2022-11-13T01:01:23.904Z,20.90
2022-11-13T01:04:10.003Z,22.13
2022-11-13T01:06:56.349Z,22.95
2022-11-13T01:09:42.349Z,22.38
2022-11-13T01:12:28.229Z,24.30
2022-11-13T01:15:14.074Z,21.90
2022-11-13T01:17:59.954Z,24.25
2022-11-13T01:20:45.697Z,19.40
2022-11-13T01:23:31.107Z,20.92
2022-11-13T01:26:25.035Z,22.08
2022-11-13T01:29:12.853Z,20.80
2022-11-13T01:31:58.493Z,22.70
2022-11-13T01:34:43.988Z,18.60
2022-11-13T01:37:32.849Z,23.27
2022-11-13T01:40:18.824Z,21.38
2022-11-13T01:43:34.734Z,22.95
2022-11-13T01:46:27.220Z,23.05
2022-11-13T01:49:26.685Z,22.17
2022-11-13T01:52:22.910Z,22.52
2022-11-13T01:55:13.695Z,18.75
2022-11-13T01:58:00.495Z,24.23
2022-11-13T02:03:55.984Z,20.30
2022-11-13T02:06:49.151Z,20.13
2022-11-13T02:12:35.666Z,19.75
2022-11-13T02:15:27.666Z,21.20
2022-11-13T02:18:14.922Z,24.65
2022-11-13T02:21:22.907Z,21.08
2022-11-13T02:24:11.782Z,20.58
2022-11-13T02:27:05.890Z,22.38
2022-11-13T02:29:51.428Z,21.33
2022-11-13T02:32:46.248Z,20.33
2022-11-13T02:35:35.745Z,20.83
2022-11-13T02:38:21.496Z,22.23
2022-11-13T02:41:07.284Z,22.25
2022-11-13T02:43:52.975Z,21.15
2022-11-13T02:46:38.610Z,24.58
2022-11-13T02:49:24.211Z,23.20
2022-11-13T02:52:10.092Z,23.73
2022-11-13T02:54:55.490Z,21.65
2022-11-13T02:57:41.070Z,22.17
2022-11-13T03:00:27.196Z,22.05
2022-11-13T03:03:12.747Z,24.10
2022-11-13T03:05:58.571Z,24.70
2022-11-13T03:08:44.403Z,21.48
2022-11-13T03:11:30.350Z,23.00
2022-11-13T03:14:16.280Z,20.95
2022-11-13T03:17:02.710Z,23.77
2022-11-13T03:19:48.611Z,19.55
2022-11-13T03:22:34.295Z,19.67
2022-11-13T03:25:19.775Z,23.83
2022-11-13T03:28:05.574Z,20.73
2022-11-13T03:30:51.323Z,20.52
2022-11-13T03:33:37.053Z,23.77
2022-11-13T03:36:22.820Z,24.00
2022-11-13T03:39:08.124Z,24.90
2022-11-13T03:41:53.708Z,24.63
2022-11-13T03:44:39.283Z,26.95
2022-11-13T03:47:24.925Z,29.15
2022-11-13T03:50:10.557Z,20.83
2022-11-13T03:52:56.361Z,24.52
2022-11-13T03:55:43.134Z,24.98
2022-11-13T03:58:28.924Z,21.08
2022-11-13T04:01:14.860Z,24.55
2022-11-13T04:04:00.448Z,23.73
2022-11-13T04:06:46.069Z,27.52
2022-11-13T04:09:31.877Z,23.70
2022-11-13T04:12:17.459Z,27.10
2022-11-13T04:15:03.184Z,28.25
2022-11-13T04:17:49.375Z,25.50
2022-11-13T04:20:35.149Z,21.35
2022-11-13T04:23:20.871Z,24.65
2022-11-13T04:26:06.535Z,23.98
2022-11-13T04:28:52.021Z,21.65
2022-11-13T04:31:37.587Z,24.52
2022-11-13T04:34:23.277Z,20.58
2022-11-13T04:37:08.996Z,21.77
2022-11-13T04:39:54.661Z,23.17
2022-11-13T04:42:49.050Z,22.55
2022-11-13T04:45:35.264Z,20.52
2022-11-13T04:48:20.935Z,23.63
2022-11-13T04:51:06.864Z,26.25
2022-11-13T04:53:52.504Z,23.52
2022-11-13T04:56:38.598Z,26.92
2022-11-13T04:59:24.621Z,25.63
2022-11-13T05:02:10.616Z,22.02
2022-11-13T05:04:59.309Z,22.33
2022-11-13T05:07:49.382Z,23.58
2022-11-13T05:10:34.942Z,23.38
2022-11-13T05:13:21.013Z,26.65
2022-11-13T05:16:09.891Z,21.65
2022-11-13T05:18:57.552Z,24.20
2022-11-13T05:21:43.428Z,22.92
2022-11-13T05:24:29.111Z,24.13
2022-11-13T05:27:17.505Z,27.98
2022-11-13T05:30:04.145Z,25.00
2022-11-13T05:32:50.035Z,24.27
2022-11-13T05:35:35.544Z,24.40
2022-11-13T05:38:21.143Z,21.35
2022-11-13T05:41:13.939Z,24.27
2022-11-13T05:44:00.029Z,25.20
2022-11-13T05:46:45.586Z,24.58
2022-11-13T05:49:31.607Z,23.17
2022-11-13T05:52:16.920Z,25.55
2022-11-13T05:55:02.725Z,20.48
2022-11-13T05:57:48.294Z,24.42
2022-11-13T06:00:33.750Z,25.13
2022-11-13T06:03:19.324Z,20.85
2022-11-13T06:06:06.400Z,22.05
2022-11-13T06:08:53.516Z,21.35
2022-11-13T06:11:39.106Z,24.90
2022-11-13T06:14:24.878Z,23.20
2022-11-13T06:17:10.766Z,23.50
2022-11-13T06:19:56.610Z,23.45
2022-11-13T06:22:41.994Z,20.98
2022-11-13T06:25:27.794Z,22.88
2022-11-13T06:28:13.703Z,22.90
2022-11-13T06:31:04.505Z,26.77
2022-11-13T06:33:50.528Z,22.98
2022-11-13T06:36:37.780Z,27.15
2022-11-13T06:39:23.452Z,20.38
2022-11-13T06:42:08.965Z,22.92
2022-11-13T06:44:54.496Z,19.67
2022-11-13T06:47:39.841Z,19.92
2022-11-13T06:50:25.585Z,20.17
2022-11-13T06:53:11.116Z,20.02
2022-11-13T06:55:57.441Z,21.85
2022-11-13T06:58:43.879Z,19.83
2022-11-13T07:01:29.531Z,24.35
2022-11-13T07:04:15.097Z,22.02
2022-11-13T07:07:00.827Z,21.45
2022-11-13T07:09:46.328Z,20.75
2022-11-13T07:12:31.791Z,22.45
2022-11-13T07:15:17.511Z,22.92
2022-11-13T07:18:04.300Z,20.63
2022-11-13T07:20:49.931Z,19.95
2022-11-13T07:23:39.770Z,21.30
2022-11-13T07:26:25.493Z,18.77
2022-11-13T07:29:11.989Z,20.52
2022-11-13T07:31:57.522Z,20.67
2022-11-13T07:34:43.191Z,20.98
2022-11-13T07:37:29.046Z,23.40
2022-11-13T07:40:14.655Z,24.35
2022-11-13T07:43:01.556Z,21.95
2022-11-13T07:45:47.305Z,20.88
2022-11-13T07:48:33.421Z,21.17
2022-11-13T07:51:19.009Z,22.20
2022-11-13T07:54:04.767Z,21.17
2022-11-13T07:56:50.421Z,22.35
2022-11-13T07:59:35.974Z,18.60
2022-11-13T08:02:26.264Z,20.85
2022-11-13T08:05:12.394Z,20.52
2022-11-13T08:07:58.148Z,18.77
2022-11-13T08:10:43.830Z,22.13
2022-11-13T08:13:29.559Z,20.60
2022-11-13T08:16:15.043Z,20.17
2022-11-13T08:19:00.424Z,20.98
2022-11-13T08:21:46.341Z,22.88
2022-11-13T08:24:32.791Z,20.55
2022-11-13T08:27:18.718Z,17.35
2022-11-13T08:30:04.745Z,17.33
2022-11-13T08:32:50.954Z,19.50
2022-11-13T08:35:36.538Z,21.67
2022-11-13T08:38:22.526Z,18.77
2022-11-13T08:41:09.654Z,19.02
2022-11-13T08:43:55.883Z,18.08
2022-11-13T08:46:41.450Z,18.92
2022-11-13T08:49:26.842Z,21.20
2022-11-13T08:52:12.257Z,18.88
2022-11-13T08:54:57.850Z,19.88
2022-11-13T08:57:43.575Z,19.48
2022-11-13T09:00:30.821Z,17.90
2022-11-13T09:03:16.469Z,20.55
2022-11-13T09:06:08.415Z,17.90
2022-11-13T09:08:54.255Z,18.90
2022-11-13T09:11:39.782Z,17.95
2022-11-13T09:14:25.374Z,20.45
2022-11-13T09:17:10.726Z,19.80
2022-11-13T09:20:00.797Z,19.67
2022-11-13T09:22:49.401Z,17.63
2022-11-13T09:25:38.039Z,19.63
2022-11-13T09:28:23.987Z,17.90
2022-11-13T09:31:09.957Z,17.80
2022-11-13T09:33:55.424Z,15.80
2022-11-13T09:36:40.910Z,15.70
2022-11-13T09:39:26.461Z,15.27
2022-11-13T09:42:17.594Z,18.85
2022-11-13T09:45:07.791Z,17.58
2022-11-13T09:47:54.623Z,14.55
2022-11-13T09:50:40.675Z,15.52
2022-11-13T09:53:27.490Z,18.38
2022-11-13T09:56:18.956Z,15.27
2022-11-13T09:59:16.938Z,14.75
2022-11-13T10:02:09.093Z,14.77
2022-11-13T10:05:09.206Z,14.20
2022-11-13T10:08:16.609Z,14.13
2022-11-13T10:11:13.174Z,13.80
2022-11-13T10:14:07.250Z,10.68
2022-11-13T10:17:21.989Z,12.35
2022-11-13T10:20:34.643Z,13.63
2022-11-13T10:23:24.504Z,11.43
2022-11-13T10:26:21.785Z,11.65
2022-11-13T10:29:12.861Z,12.77
2022-11-13T10:31:59.547Z,13.88
2022-11-13T10:34:56.869Z,11.50
2022-11-13T10:38:08.662Z,13.07
2022-11-13T10:41:07.085Z,11.73
2022-11-13T10:44:21.007Z,14.30
2022-11-13T10:47:36.469Z,12.95
2022-11-13T10:50:30.487Z,11.55
2022-11-13T10:53:18.479Z,13.68
2022-11-13T10:56:14.486Z,11.70
2022-11-13T10:59:18.439Z,11.57
2022-11-13T11:02:22.411Z,12.68
2022-11-13T11:05:19.385Z,11.73
2022-11-13T11:08:10.272Z,12.15
2022-11-13T11:11:18.526Z,11.10
2022-11-13T11:14:16.203Z,12.57
2022-11-13T11:17:04.433Z,12.32
2022-11-13T11:19:58.686Z,11.32
2022-11-13T11:22:47.920Z,11.25
2022-11-13T11:25:41.845Z,10.82
2022-11-13T11:28:35.747Z,13.93
2022-11-13T11:31:35.425Z,11.95
2022-11-13T11:34:34.038Z,11.48
2022-11-13T11:37:24.998Z,10.95
2022-11-13T11:40:24.133Z,10.50
2022-11-13T11:43:41.464Z,11.38
2022-11-13T11:46:28.496Z,13.10
2022-11-13T11:49:14.413Z,12.02
2022-11-13T11:52:24.639Z,12.60
2022-11-13T11:55:27.783Z,18.42
2022-11-13T11:58:13.379Z,10.23
2022-11-13T12:01:14.784Z,9.40
2022-11-13T12:04:07.444Z,10.98
2022-11-13T12:07:17.616Z,13.05
2022-11-13T12:10:06.080Z,9.68
2022-11-13T12:13:20.277Z,9.63
2022-11-13T12:16:11.864Z,11.65
2022-11-13T12:19:30.761Z,9.02
2022-11-13T12:22:30.560Z,11.18
2022-11-13T12:25:34.886Z,10.30
2022-11-13T12:28:50.813Z,12.85
2022-11-13T12:31:58.009Z,9.38
2022-11-13T12:34:58.451Z,12.30
2022-11-13T12:37:49.672Z,10.15
2022-11-13T12:40:50.705Z,10.23
2022-11-13T12:43:42.376Z,9.00
2022-11-13T12:46:36.604Z,8.32
2022-11-13T12:49:36.569Z,9.07
2022-11-13T12:52:24.412Z,8.50
2022-11-13T12:55:31.715Z,7.85
2022-11-13T12:58:26.624Z,8.75
2022-11-13T13:01:12.325Z,8.50
2022-11-13T13:04:25.955Z,8.50
2022-11-13T13:07:39.793Z,9.27
2022-11-13T13:10:52.767Z,8.68
2022-11-13T13:13:53.746Z,7.88
2022-11-13T13:16:39.543Z,9.43
2022-11-13T13:19:30.246Z,7.72
2022-11-13T13:22:31.465Z,7.63
2022-11-13T13:25:33.206Z,8.30
2022-11-13T13:28:24.133Z,8.57
2022-11-13T13:31:12.914Z,8.85
2022-11-13T13:34:17.316Z,9.57
2022-11-13T13:37:19.368Z,7.70
2022-11-13T13:40:32.012Z,7.38
2022-11-13T13:43:55.835Z,7.72
2022-11-13T13:46:42.139Z,7.03
2022-11-13T13:49:28.764Z,7.68
2022-11-13T13:52:15.630Z,8.70
2022-11-13T13:55:04.278Z,8.65
2022-11-13T13:57:50.191Z,8.30
2022-11-13T14:00:44.606Z,7.68
2022-11-13T14:03:39.178Z,10.00
2022-11-13T14:06:24.828Z,9.93
2022-11-13T14:09:16.896Z,8.82
2022-11-13T14:12:09.636Z,9.32
2022-11-13T14:14:56.151Z,7.60
2022-11-13T14:17:41.701Z,8.38
2022-11-13T14:20:27.503Z,11.50
2022-11-13T14:23:19.428Z,11.25
2022-11-13T14:26:06.567Z,10.57
2022-11-13T14:28:59.075Z,10.13
2022-11-13T14:31:44.702Z,9.75
2022-11-13T14:34:31.123Z,10.27
2022-11-13T14:37:46.423Z,10.40
2022-11-13T14:40:37.412Z,10.27
2022-11-13T14:43:27.694Z,11.30
2022-11-13T14:46:26.195Z,12.43
2022-11-13T14:49:28.703Z,11.52
2022-11-13T14:52:40.767Z,11.38
2022-11-13T14:55:38.128Z,11.63
2022-11-13T14:58:32.598Z,12.90
2022-11-13T15:01:25.559Z,11.63
2022-11-13T15:04:10.977Z,13.20
2022-11-13T15:07:00.290Z,11.50
2022-11-13T15:09:46.386Z,12.93
2022-11-13T15:12:32.038Z,11.43
2022-11-13T15:15:30.398Z,13.98
2022-11-13T15:18:19.715Z,13.32
2022-11-13T15:21:05.549Z,13.02
2022-11-13T15:23:51.295Z,13.25
2022-11-13T15:26:37.587Z,14.50
2022-11-13T15:29:23.248Z,13.43
2022-11-13T15:32:11.920Z,11.57
2022-11-13T15:34:57.588Z,11.25
2022-11-13T15:37:43.287Z,12.90
2022-11-13T15:40:28.791Z,13.30
2022-11-13T15:43:20.179Z,22.05
2022-11-13T15:46:10.999Z,14.13
2022-11-13T15:48:56.923Z,16.88
2022-11-13T15:51:46.322Z,14.00
2022-11-13T15:54:34.440Z,14.63
2022-11-13T15:57:23.174Z,12.13
2022-11-13T16:00:27.160Z,16.42
2022-11-13T16:03:14.020Z,12.95
2022-11-13T16:06:00.182Z,14.88
2022-11-13T16:08:46.712Z,18.10
2022-11-13T16:11:34.221Z,13.63
2022-11-13T16:14:24.587Z,17.75
2022-11-13T16:17:13.718Z,15.13
2022-11-13T16:19:59.694Z,14.77
2022-11-13T16:22:45.915Z,16.05
2022-11-13T16:25:31.886Z,15.00
2022-11-13T16:28:18.933Z,17.20
2022-11-13T16:31:04.940Z,17.92
2022-11-13T16:33:50.561Z,17.60
2022-11-13T16:36:36.071Z,14.02
2022-11-13T16:39:21.619Z,16.88
2022-11-13T16:42:07.131Z,14.88
2022-11-13T16:44:52.984Z,16.33
2022-11-13T16:47:38.877Z,17.90
2022-11-13T16:50:29.311Z,16.92
2022-11-13T16:53:15.101Z,16.50
2022-11-13T16:56:01.719Z,18.92
2022-11-13T16:58:47.799Z,18.42
2022-11-13T17:01:33.516Z,19.55
2022-11-13T17:04:18.853Z,24.33
2022-11-13T17:07:04.522Z,18.30
2022-11-13T17:10:10.124Z,19.40
2022-11-13T17:12:55.785Z,15.65
2022-11-13T17:15:41.513Z,21.55
2022-11-13T17:18:27.560Z,18.98
2022-11-13T17:21:13.028Z,19.33
2022-11-13T17:24:03.840Z,20.88
2022-11-13T17:26:49.987Z,20.55
2022-11-13T17:29:35.739Z,16.73
2022-11-13T17:32:21.414Z,18.17
2022-11-13T17:35:07.959Z,19.30
2022-11-13T17:37:53.340Z,17.60
2022-11-13T17:40:38.953Z,15.55
2022-11-13T17:43:24.476Z,20.50
2022-11-13T17:46:16.510Z,21.48
2022-11-13T17:49:02.497Z,19.67
2022-11-13T17:51:48.045Z,18.48
2022-11-13T17:54:33.432Z,18.63
2022-11-13T17:57:22.821Z,20.65
2022-11-13T18:00:12.420Z,19.88
2022-11-13T18:02:58.397Z,18.88
2022-11-13T18:05:44.420Z,18.05
2022-11-13T18:08:30.363Z,17.30
2022-11-13T18:11:26.920Z,16.33
2022-11-13T18:14:12.532Z,19.42
2022-11-13T18:16:57.974Z,18.63
2022-11-13T18:19:43.515Z,18.23
2022-11-13T18:22:30.039Z,21.75
2022-11-13T18:25:15.529Z,18.88
2022-11-13T18:28:01.231Z,19.45
2022-11-13T18:30:47.508Z,20.60
2022-11-13T18:33:35.186Z,17.83
2022-11-13T18:36:20.934Z,19.00
2022-11-13T18:39:07.408Z,18.83
2022-11-13T18:41:53.634Z,14.85
2022-11-13T18:44:39.598Z,15.45
2022-11-13T18:47:25.108Z,17.67
2022-11-13T18:50:10.803Z,19.85
2022-11-13T18:52:56.765Z,20.05
2022-11-13T18:55:42.483Z,20.20
2022-11-13T18:58:28.992Z,21.20
2022-11-13T19:01:21.572Z,18.45
2022-11-13T19:07:12.113Z,19.25
2022-11-13T19:09:58.016Z,21.25
2022-11-13T19:12:43.618Z,17.02
2022-11-13T19:15:29.251Z,21.55
2022-11-13T19:18:15.215Z,20.17
2022-11-13T19:21:12.079Z,20.45
2022-11-13T19:23:58.604Z,16.98
2022-11-13T19:26:45.913Z,18.92
2022-11-13T19:29:31.392Z,19.52
2022-11-13T19:32:17.045Z,19.38
2022-11-13T19:35:02.704Z,18.40
2022-11-13T19:37:48.420Z,18.83
2022-11-13T19:40:33.959Z,17.25
2022-11-13T19:43:19.496Z,19.30
2022-11-13T19:46:09.515Z,20.08
2022-11-13T19:48:55.285Z,18.60
2022-11-13T19:51:40.948Z,19.55
2022-11-13T19:54:26.595Z,21.83
2022-11-13T19:57:12.280Z,18.35
2022-11-13T19:59:57.979Z,17.63
2022-11-13T20:02:43.627Z,18.00
2022-11-13T20:05:29.235Z,19.77
2022-11-13T20:08:14.844Z,19.17
2022-11-13T20:11:05.959Z,19.75
2022-11-13T20:13:52.302Z,21.85
2022-11-13T20:16:38.017Z,22.33
2022-11-13T20:19:23.581Z,20.58
2022-11-13T20:22:09.156Z,20.77
2022-11-13T20:24:54.834Z,19.98
2022-11-13T20:27:45.966Z,23.05
2022-11-13T20:30:33.269Z,21.75
2022-11-13T20:33:22.557Z,21.35
2022-11-13T20:36:08.781Z,21.70
2022-11-13T20:38:56.290Z,23.63
2022-11-13T20:41:41.857Z,22.05
2022-11-13T20:44:27.579Z,23.90
2022-11-13T20:47:13.034Z,20.83
2022-11-13T20:49:58.740Z,21.55
2022-11-13T20:52:44.516Z,23.73
2022-11-13T20:55:30.544Z,22.30
2022-11-13T20:58:16.176Z,22.75
2022-11-13T21:01:06.655Z,24.25
2022-11-13T21:03:52.714Z,24.23
2022-11-13T21:06:38.237Z,21.35
2022-11-13T21:09:24.036Z,20.67
2022-11-13T21:12:11.297Z,20.08
2022-11-13T21:14:57.948Z,25.45
2022-11-13T21:17:43.919Z,23.20
2022-11-13T21:20:29.600Z,26.38
2022-11-13T21:23:15.383Z,23.63
2022-11-13T21:26:06.252Z,26.20
2022-11-13T21:29:00.207Z,26.48
2022-11-13T21:31:45.723Z,26.65
2022-11-13T21:34:31.437Z,25.40
2022-11-13T21:37:17.242Z,25.83
2022-11-13T21:40:03.091Z,28.10
2022-11-13T21:42:48.738Z,30.60
2022-11-13T21:45:34.629Z,27.10
2022-11-13T21:48:20.171Z,34.53
2022-11-13T21:51:06.391Z,36.42
2022-11-13T21:53:51.997Z,44.58
2022-11-13T21:56:38.787Z,49.22
2022-11-13T21:59:24.599Z,41.30
2022-11-13T22:02:11.355Z,38.15
2022-11-13T22:04:56.864Z,40.35
2022-11-13T22:07:43.049Z,43.42
2022-11-13T22:10:28.730Z,38.70
2022-11-13T22:13:14.257Z,51.45
2022-11-13T22:16:00.257Z,60.47
2022-11-13T22:18:46.493Z,54.83
2022-11-13T22:21:32.822Z,46.90
2022-11-13T22:24:19.641Z,46.10
2022-11-13T22:27:05.254Z,41.95
2022-11-13T22:29:50.803Z,41.10
2022-11-13T22:32:36.319Z,50.20
2022-11-13T22:35:21.920Z,41.42
2022-11-13T22:38:07.303Z,49.85
2022-11-13T22:40:53.385Z,43.17
2022-11-13T22:43:43.191Z,43.63
2022-11-13T22:46:31.111Z,41.20
2022-11-13T22:49:16.937Z,43.60
2022-11-13T22:52:02.628Z,41.00
2022-11-13T22:54:48.530Z,40.05
2022-11-13T22:57:34.212Z,44.63
2022-11-13T23:00:19.996Z,42.38
2022-11-13T23:03:05.606Z,44.30
2022-11-13T23:05:51.091Z,44.28
2022-11-13T23:08:41.247Z,46.83
2022-11-13T23:11:33.223Z,47.00
2022-11-13T23:14:18.837Z,49.22
2022-11-13T23:17:04.518Z,51.38
2022-11-13T23:19:49.824Z,52.40
2022-11-13T23:22:35.572Z,47.78
2022-11-13T23:25:21.355Z,55.40
2022-11-13T23:28:06.783Z,58.80
2022-11-13T23:30:52.673Z,47.70
2022-11-13T23:33:40.265Z,51.58
2022-11-13T23:36:27.510Z,55.53
2022-11-13T23:39:14.831Z,62.08
2022-11-13T23:42:00.911Z,54.33
2022-11-13T23:44:46.502Z,56.95
2022-11-13T23:47:32.067Z,56.65
2022-11-13T23:50:17.612Z,59.95
2022-11-13T23:53:03.476Z,63.75
2022-11-13T23:55:49.044Z,58.15
2022-11-13T23:58:34.870Z,62.42
